Terminal Aerodrome Forecast
Issued by NWS

Home | Current Version | Previous Version | Text Only | Print | Product List | Glossary On
Versions: 1 2 3 4 5 6 7 8 9 10 11 12 13 14 15 16 17 18 19 20 21 22 23 24
000
FTUS41 KGYX 021722
TAFHIE
TAF
KHIE 021722Z 0218/0318 23008KT P6SM SCT040 SCT100
     FM022100 20007KT P6SM SCT045 BKN100
      TEMPO 0300/0304 4SM -TSRA BR BKN020CB
     FM030400 VRB03KT 3SM BR BKN003
     FM030600 00000KT 1/2SM FG VV002
     FM031300 29007KT P6SM SCT020 BKN040 OVC070=

USA.gov is the U.S. government's official web portal to all federal, state and local government web resources and services.